Архив погоды в Александровском

Метеограмма Александровское
Пятница, 23 Июня
Время местн. Темп Ветер Видим Явления Облачность нижн/средн/верх Атм. давл. Влжн Точка росы ВНГО R Сост. почвы Tg s
Напр Скр Прв ур.ст ур.м изм
15:00 +28.2° С-В 2 - 20 км - переменная облачность 752 756 0 28% +8.2° 1.5 км - - - -
12:00 +26.4° В 2 - 20 км - переменная облачность 752 756 0 42% +12.4° 1.5 км - - - -
09:00 +23.7° В 1 - 20 км - ясно 752 756 +0.7 53% +13.7° более 2.5 км - - - -
06:00 +17.2° Ю-З 1 - 20 км - ясно 751 755 +0.7 84% +14.4° более 2.5 км 0 Влажная (без луж) +14° -
03:00 +12.8° Ю,Ю-З 1 - 20 км - ясно 750 755 +0.7 95% +12° более 2.5 км - - - -
00:00 +15° Ю-З 1 - 20 км - переменная облачность 750 754 +0.7 91% +13.6° более 2.5 км - - - -
Четверг, 22 Июня
Время местн. Темп Ветер Видим Явления Облачность нижн/средн/верх Атм. давл. Влжн Точка росы ВНГО R Сост. почвы Tg s
Напр Скр Прв ур.ст ур.м изм
21:00 +22.4° В,Ю-В 1 - 20 км - облачно с прояснениями 749 753 +0.8 59% +14.1° 1.5 км - - - -
18:00 +22.9° Ю-В 2 - 20 км небо без изменений {ливневые осадки} облачно 748 752 -0.2 58% +14.3° 1.5 км 0.5 - - -
15:00 +19.1° Ю-З 3 - 20 км слабый ливневый дождь преимущественно облачно 748 753 +0.6 74% +14.4° 600 м - - - -
12:00 +24.5° С-В 2 - 20 км - переменная облачность 748 752 +0.2 52% +14.1° 1 км - - - -
09:00 +21.5° Ю-З 2 - 20 км - переменная облачность 747 752 +0.8 57% +12.6° 1.5 км - - - -
06:00 +15.4° Ю,Ю-З 2 - 20 км - преимущественно облачно 747 751 +0.8 82% +12.4° 2 км 0 Сухая (без трещин) - -
03:00 +15.5° Ю,Ю-З 3 - 20 км - облачно с прояснениями 746 750 +0.5 78% +11.6° 2 км - - - -
00:00 +17.6° Ю 2 - 20 км - преимущественно облачно 745 750 +0.5 67% +11.4° 2 км - - - -
Среда, 21 Июня
Время местн. Темп Ветер Видим Явления Облачность нижн/средн/верх Атм. давл. Влжн Точка росы ВНГО R Сост. почвы Tg s
Напр Скр Прв ур.ст ур.м изм
21:00 +21.1° Ю 2 - 20 км - преимущественно облачно 745 749 +0.3 49% +9.9° 1 км - - - -
18:00 +23.5° З,Ю-З 2 - 20 км - преимущественно облачно 745 749 +0.1 38% +8.5° 1 км 0 - - -
15:00 +25.2° Ю 4 10 20 км - переменная облачность 745 749 -0.5 32% +7.5° 1 км - - - -
12:00 +23.9° Ю,Ю-З 5 - 20 км - переменная облачность 745 749 0 39% +9.2° 1 км - - - -
09:00 +20.4° Ю,Ю-З 6 12 20 км - переменная облачность 745 749 +0.1 46% +8.5° 1 км - - - -
06:00 +15.9° Ю 3 - 20 км - незначительная облачность 745 749 +0.3 70% +10.5° более 2.5 км 0 Сухая (без трещин) +12° -
03:00 +15.2° Ю 3 - 20 км - ясно 745 749 +0.1 71% +9.9° более 2.5 км - - - -
00:00 +18.4° Ю 3 10 20 км - переменная облачность 745 749 +0.2 52% +8.5° 1.5 км - - - -
Вторник, 20 Июня
Время местн. Темп Ветер Видим Явления Облачность нижн/средн/верх Атм. давл. Влжн Точка росы ВНГО R Сост. почвы Tg s
Напр Скр Прв ур.ст ур.м изм
21:00 +22° Ю 5 13 20 км - облачно с прояснениями 744 749 -0.2 42% +8.4° 1.5 км - - - -
18:00 +26.1° Ю 6 11 20 км небо без изменений {гроза, ливневые осадки} облачно с прояснениями 745 749 -0.5 31% +7.8° 1.5 км - - - -
15:00 +27° Ю 7 15 20 км - переменная облачность 745 749 -0.5 28% +7° 1 км - - - -
12:00 +25.1° Ю 7 11 20 км - переменная облачность 746 750 -0.5 32% +7.3° 1 км - - - -